Virgilia, California
Current Conditions -  °F | °C
As of 1:58 PM on Friday 24 Oct 2014 (Local Time) from KCIC Reporting Station
Scattered Clouds Scattered Clouds  
Wind Chill: 73°   Ceiling: Unl
Heat Index: 73°   Visibility: 25mi
Dew Point: 48°   Wind: 13mph
Humidity: 41%   Direction: 140°SE
Pressure: 29.9"   Gusts: NA
Location:  39.9994°N, 121.168°W
Report Text: KCIC 242058Z 14011KT 25SM SCT250 23/09 A2990
Loading
Personal Weather Stations






























Interactive Weather Map
Tropical Storm Tracking
New forecast layout! Learn more

10-Day Weather Forecast

Advertisements
Track Severe Weather on mobile